Grand Junction, CO (81501)

12:21 AM MST on January 24, 2017 (GMT -0700)
MAU407 | | Change Station

Elev 4601 ft 39.07 °N, 108.56 °W | Updated 7 minutes ago

Clear
Clear
31.0 °F
Feels Like 31 °F
N
2.0
Wind Variable Wind from West
Gusts 3.0 mph

Today
High -- | Low -- °F
--% Chance of Precip.
Yesterday
High -- | Low -- °F
Precip. -- in
Pressure 29.53 in
Visibility 10.0 miles
Clouds Clear
Windchill 31 °F
Dew Point 28 °F
Humidity 87%
Rainfall in
Snow Depth Not available.
7:26 AM 5:26 PM
Waning Crescent, 13% visible
METAR KGJT 240653Z AUTO 08003KT 10SM CLR M01/M02 A2956 RMK AO2 SLP999 T10061017 401001017
Pressure 29.53 in
Visibility 10.0 miles
Clouds Clear
Windchill 31 °F
Dew Point 28 °F
Humidity 87%
Rainfall in
Snow Depth Not available.
7:26 AM 5:26 PM
Waning Crescent, 13% visible
METAR KGJT 240653Z AUTO 08003KT 10SM CLR M01/M02 A2956 RMK AO2 SLP999 T10061017 401001017

Get Your Daily Forecast Email!

Thanks for signing up!

Be on the lookout for a verification email in your inbox.

You'll start receiving the daily forecast at 8 AM.

×

10-Day Weather Forecast

Almanac

Astronomy

Jan. 24, 2017 Rise Set
Actual Time
Civil Twilight
Nautical Twilight
Astronomical Twilight
Moon
Length of Visible Light
Length of Day
Tomorrow will be .
, % of the Moon is Illuminated

Today's Extremes

State Highs State Lows

Community

WunderPhotos

Upload Photos

1,962,540 photos uploaded!

WunderBlog® & News

Nearby

Air Quality

  Air Quality AQ Index Pollutant
Not available.

Snow Depth

Station Depth Elevation

Earthquake Activity

City Distance Mag. Time & Date
Minimum magnitude displayed is 2.5.

Coastal Water Temperatures

Place Temperature

Stations

Nearby Weather Stations

Station Location Temp. Windchill Dew Point Humidity Wind Precip. Elev Updated Type
                   

Watches & Warnings

There are currently no watches in effect.